Terminal Aerodrome Forecast
Issued by NWS

Home | Current Version | Previous Version | Text Only | Print | Product List | Glossary On
Versions: 1 2 3 4 5 6 7 8 9 10 11 12 13 14 15 16 17 18 19 20 21
000
FTUS43 KGRR 221700
TAFLAN
TAF
KLAN 221740Z 2218/2318 12010KT P6SM BKN150
     FM222100 11010KT 6SM HZ VCSH OVC070
     FM222300 11010KT 5SM -RAPL BR OVC035
     FM230100 11010KT 2SM -RA BR OVC015
     FM230800 11012KT 2SM -RA BR OVC007
     FM231100 13010KT 1 1/2SM -RA BR OVC004=

USA.gov is the U.S. government's official web portal to all federal, state and local government web resources and services.